Time;durP1;ratioP1;P1;durP2;ratioP2;P2;SDS_P1;SDS_P2;PMS_P1;PMS_P2;Temp;Humidity;BMP_temperature;BMP_pressure;BME280_temperature;BME280_humidity;BME280_pressure;Samples;Min_cycle;Max_cycle;Signal;HPM_P1;HPM_P2
2021/11/24 00:02:13;;;;;;;7.85;6.03;;;;;;;;;;4979009;28;20866;-83
2021/11/24 00:04:40;;;;;;;6.25;5.72;;;;;;;;;;4978679;28;20185;-83
2021/11/24 00:07:08;;;;;;;5.63;5.10;;;;;;;;;;4978373;28;20276;-82
2021/11/24 00:09:35;;;;;;;5.30;4.80;;;;;;;;;;4978851;28;20220;-82
2021/11/24 00:12:04;;;;;;;5.72;5.13;;;;;;;;;;4977890;28;20231;-83
2021/11/24 00:14:31;;;;;;;5.45;4.95;;;;;;;;;;4978281;28;20248;-82
2021/11/24 00:16:59;;;;;;;4.40;4.00;;;;;;;;;;4978764;28;20302;-83
2021/11/24 00:19:28;;;;;;;6.32;5.75;;;;;;;;;;4978067;28;20243;-84
2021/11/24 00:21:56;;;;;;;4.95;4.45;;;;;;;;;;4977355;28;20609;-82
2021/11/24 00:24:23;;;;;;;5.25;4.55;;;;;;;;;;4976908;28;20219;-83
2021/11/24 00:26:51;;;;;;;5.70;4.30;;;;;;;;;;4977638;28;20224;-84
2021/11/24 00:29:18;;;;;;;4.10;3.38;;;;;;;;;;4978550;28;20223;-83
2021/11/24 00:31:46;;;;;;;3.88;3.47;;;;;;;;;;4978619;28;20217;-83
2021/11/24 00:34:14;;;;;;;4.65;3.97;;;;;;;;;;4974950;28;20203;-83
2021/11/24 00:36:43;;;;;;;6.10;5.50;;;;;;;;;;4961908;28;20217;-83
2021/11/24 00:39:10;;;;;;;5.22;4.63;;;;;;;;;;4959064;29;20233;-83
2021/11/24 00:41:38;;;;;;;6.50;6.00;;;;;;;;;;4959173;29;20189;-83
2021/11/24 00:44:06;;;;;;;5.30;4.03;;;;;;;;;;4958834;29;20225;-84
2021/11/24 00:46:34;;;;;;;3.45;3.15;;;;;;;;;;4958900;28;20770;-83
2021/11/24 00:49:02;;;;;;;4.00;3.70;;;;;;;;;;4958402;29;20205;-83
2021/11/24 00:51:29;;;;;;;5.43;4.43;;;;;;;;;;4958807;29;20216;-82
2021/11/24 00:53:58;;;;;;;5.93;5.35;;;;;;;;;;4958633;29;20244;-83
2021/11/24 00:56:26;;;;;;;4.78;3.72;;;;;;;;;;4959070;28;20699;-83
2021/11/24 00:58:55;;;;;;;4.47;4.07;;;;;;;;;;4960291;29;20213;-83
2021/11/24 01:01:22;;;;;;;4.22;3.83;;;;;;;;;;4960208;29;20232;-83
2021/11/24 01:03:50;;;;;;;4.68;4.28;;;;;;;;;;4960351;29;20217;-84
2021/11/24 01:06:18;;;;;;;5.15;4.43;;;;;;;;;;4984889;23;20241;-83
2021/11/24 01:08:46;;;;;;;6.22;4.90;;;;;;;;;;4961106;28;20242;-83
2021/11/24 01:11:15;;;;;;;5.40;4.47;;;;;;;;;;4974330;28;20682;-83
2021/11/24 01:13:43;;;;;;;5.68;4.55;;;;;;;;;;4974085;28;20220;-83
2021/11/24 01:16:11;;;;;;;5.82;4.72;;;;;;;;;;4957439;28;20336;-83
2021/11/24 01:18:39;;;;;;;4.82;4.32;;;;;;;;;;4954761;29;20204;-83
2021/11/24 01:21:07;;;;;;;3.92;3.63;;;;;;;;;;4955556;29;20221;-83
2021/11/24 01:23:35;;;;;;;4.10;3.50;;;;;;;;;;4958096;28;20631;-83
2021/11/24 01:26:03;;;;;;;4.20;3.80;;;;;;;;;;4973276;28;20263;-83
2021/11/24 01:28:32;;;;;;;4.15;3.75;;;;;;;;;;4973899;28;20277;-83
2021/11/24 01:30:59;;;;;;;3.55;3.25;;;;;;;;;;4974253;28;20659;-83
2021/11/24 01:33:27;;;;;;;3.70;3.40;;;;;;;;;;4973608;28;20212;-83
2021/11/24 01:35:55;;;;;;;3.35;3.15;;;;;;;;;;4973188;28;20311;-83
2021/11/24 01:38:23;;;;;;;3.88;3.58;;;;;;;;;;4973085;28;20227;-83
2021/11/24 01:40:51;;;;;;;5.38;4.55;;;;;;;;;;4973357;28;20231;-83
2021/11/24 01:43:19;;;;;;;8.25;4.63;;;;;;;;;;4973559;28;20224;-83
2021/11/24 01:45:49;;;;;;;5.28;4.78;;;;;;;;;;4973140;28;20667;-83
2021/11/24 01:48:16;;;;;;;5.38;4.88;;;;;;;;;;4975206;28;20231;-83
2021/11/24 01:50:44;;;;;;;5.07;4.45;;;;;;;;;;4977945;28;20228;-83
2021/11/24 01:53:12;;;;;;;5.15;4.65;;;;;;;;;;4978082;28;20231;-83
2021/11/24 01:55:40;;;;;;;4.68;4.28;;;;;;;;;;4977459;28;20248;-83
2021/11/24 01:58:07;;;;;;;6.72;5.75;;;;;;;;;;4977350;28;20208;-82
2021/11/24 02:00:36;;;;;;;6.82;5.97;;;;;;;;;;4977637;28;20212;-82
2021/11/24 02:03:06;;;;;;;5.22;4.82;;;;;;;;;;4978215;28;20217;-83
2021/11/24 02:05:33;;;;;;;3.83;3.45;;;;;;;;;;4977877;28;20191;-83
2021/11/24 02:08:01;;;;;;;4.40;4.00;;;;;;;;;;4977067;28;20318;-83
2021/11/24 02:10:29;;;;;;;3.30;3.00;;;;;;;;;;4977177;28;20228;-83
2021/11/24 02:12:56;;;;;;;4.70;4.30;;;;;;;;;;4977386;28;20229;-83
2021/11/24 02:15:25;;;;;;;4.32;3.97;;;;;;;;;;4977140;28;20621;-82
2021/11/24 02:17:53;;;;;;;4.55;3.72;;;;;;;;;;4977070;28;20270;-83
2021/11/24 02:20:39;;;;;;;3.90;3.45;;;;;;;;;;4977455;28;20220;-83
2021/11/24 02:23:08;;;;;;;3.25;2.95;;;;;;;;;;4977693;28;20275;-83
2021/11/24 02:25:36;;;;;;;4.40;4.00;;;;;;;;;;4976756;28;20196;-83
2021/11/24 02:28:05;;;;;;;4.03;3.72;;;;;;;;;;4977068;28;20231;-83
2021/11/24 02:30:33;;;;;;;3.70;3.40;;;;;;;;;;4976981;28;20188;-83
2021/11/24 02:33:01;;;;;;;3.30;3.00;;;;;;;;;;4977321;28;20200;-83
2021/11/24 02:35:29;;;;;;;4.18;3.88;;;;;;;;;;4976757;28;20238;-83
2021/11/24 02:37:58;;;;;;;3.38;3.08;;;;;;;;;;4975931;28;20228;-83
2021/11/24 02:40:30;;;;;;;3.45;3.15;;;;;;;;;;4977087;28;20232;-83
2021/11/24 02:42:58;;;;;;;5.50;4.63;;;;;;;;;;4976760;28;20232;-83
2021/11/24 02:45:26;;;;;;;7.68;5.32;;;;;;;;;;4976371;28;20240;-83
2021/11/24 02:47:54;;;;;;;5.05;4.43;;;;;;;;;;4976447;28;20275;-83
2021/11/24 02:50:22;;;;;;;3.78;3.42;;;;;;;;;;4976977;28;20604;-83
2021/11/24 02:52:49;;;;;;;3.58;3.28;;;;;;;;;;4976404;28;20233;-83
2021/11/24 02:55:19;;;;;;;3.35;2.70;;;;;;;;;;4976402;28;20228;-83
2021/11/24 02:57:50;;;;;;;4.22;3.78;;;;;;;;;;4976008;28;20228;-83
2021/11/24 03:00:23;;;;;;;6.22;5.47;;;;;;;;;;4975110;28;20212;-83
2021/11/24 03:02:50;;;;;;;5.07;4.57;;;;;;;;;;4976182;28;20673;-83
2021/11/24 03:05:21;;;;;;;3.97;3.55;;;;;;;;;;4976128;28;20255;-82
2021/11/24 03:07:49;;;;;;;3.95;3.55;;;;;;;;;;4975576;28;20351;-83
2021/11/24 03:10:19;;;;;;;3.67;3.35;;;;;;;;;;4976370;28;20220;-83
2021/11/24 03:12:47;;;;;;;3.90;3.55;;;;;;;;;;4976128;28;20281;-83
2021/11/24 03:15:14;;;;;;;3.83;3.53;;;;;;;;;;4976461;28;20220;-83
2021/11/24 03:17:42;;;;;;;4.55;4.15;;;;;;;;;;4975697;28;20259;-82
2021/11/24 03:20:12;;;;;;;4.03;3.63;;;;;;;;;;4975919;28;20299;-83
2021/11/24 03:22:40;;;;;;;3.13;2.90;;;;;;;;;;4975159;28;20239;-83
2021/11/24 03:25:09;;;;;;;3.45;3.10;;;;;;;;;;4975216;28;20216;-83
2021/11/24 03:27:42;;;;;;;4.88;4.13;;;;;;;;;;4975982;28;20640;-82
2021/11/24 03:30:12;;;;;;;6.10;5.50;;;;;;;;;;4975938;28;20235;-83
2021/11/24 03:32:40;;;;;;;5.10;4.70;;;;;;;;;;4975849;28;20639;-83
2021/11/24 03:35:09;;;;;;;4.90;4.38;;;;;;;;;;4976169;28;20239;-83
2021/11/24 03:37:38;;;;;;;7.95;5.35;;;;;;;;;;4974692;28;20266;-83
2021/11/24 03:40:07;;;;;;;7.45;6.43;;;;;;;;;;4975794;28;20224;-83
2021/11/24 03:42:36;;;;;;;6.90;5.85;;;;;;;;;;4976084;28;20272;-83
2021/11/24 03:45:07;;;;;;;6.38;5.55;;;;;;;;;;4976392;28;20188;-83
2021/11/24 03:47:34;;;;;;;4.93;4.50;;;;;;;;;;4975222;28;20259;-83
2021/11/24 03:50:02;;;;;;;6.82;5.65;;;;;;;;;;4976497;28;20251;-82
2021/11/24 03:52:30;;;;;;;5.75;5.25;;;;;;;;;;4975597;28;20231;-82
2021/11/24 03:54:58;;;;;;;5.25;4.75;;;;;;;;;;4975468;28;20220;-81
2021/11/24 03:57:25;;;;;;;4.80;4.32;;;;;;;;;;4975396;28;20231;-83
2021/11/24 03:59:53;;;;;;;5.95;5.35;;;;;;;;;;4975480;28;20223;-83
2021/11/24 04:02:22;;;;;;;6.53;5.60;;;;;;;;;;4975565;28;20647;-83
2021/11/24 04:04:49;;;;;;;5.55;5.03;;;;;;;;;;4975448;28;20232;-83
2021/11/24 04:07:17;;;;;;;5.60;4.75;;;;;;;;;;4974607;28;20264;-83
2021/11/24 04:09:47;;;;;;;4.80;4.35;;;;;;;;;;4974779;28;20227;-83
2021/11/24 04:12:14;;;;;;;5.18;4.05;;;;;;;;;;4975086;28;20639;-83
2021/11/24 04:14:42;;;;;;;2.83;2.63;;;;;;;;;;4975385;28;20235;-83
2021/11/24 04:17:10;;;;;;;3.10;2.90;;;;;;;;;;4974878;28;20264;-83
2021/11/24 04:19:39;;;;;;;6.95;5.13;;;;;;;;;;4974901;28;20623;-83
2021/11/24 04:22:07;;;;;;;4.43;4.03;;;;;;;;;;4975339;28;20271;-83
2021/11/24 04:24:35;;;;;;;3.92;3.63;;;;;;;;;;4975281;28;20208;-82
2021/11/24 04:27:03;;;;;;;5.22;3.65;;;;;;;;;;4975522;28;20602;-83
2021/11/24 04:29:30;;;;;;;3.90;3.50;;;;;;;;;;4975279;28;20682;-83
2021/11/24 04:31:58;;;;;;;3.40;3.08;;;;;;;;;;4974165;28;20240;-83
2021/11/24 04:34:26;;;;;;;4.00;2.90;;;;;;;;;;4974548;28;20200;-83
2021/11/24 04:36:55;;;;;;;3.58;3.28;;;;;;;;;;4974579;28;20770;-83
2021/11/24 04:39:22;;;;;;;3.35;3.15;;;;;;;;;;4973577;28;20926;-83
2021/11/24 04:41:50;;;;;;;3.15;2.90;;;;;;;;;;4974595;28;20236;-83
2021/11/24 04:44:17;;;;;;;3.22;2.95;;;;;;;;;;4974507;28;20239;-83
2021/11/24 04:46:45;;;;;;;3.83;3.00;;;;;;;;;;4974653;28;20283;-83
2021/11/24 04:49:13;;;;;;;3.97;2.85;;;;;;;;;;4973471;28;20208;-83
2021/11/24 04:51:40;;;;;;;4.03;3.20;;;;;;;;;;4974448;28;20611;-83
2021/11/24 04:54:09;;;;;;;2.95;2.75;;;;;;;;;;4974433;28;20311;-83
2021/11/24 04:56:37;;;;;;;3.17;2.88;;;;;;;;;;4974387;28;20316;-83
2021/11/24 04:59:05;;;;;;;2.85;2.65;;;;;;;;;;4973832;28;20287;-83
2021/11/24 05:01:32;;;;;;;3.22;3.03;;;;;;;;;;4974314;28;20650;-83
2021/11/24 05:04:00;;;;;;;3.40;3.10;;;;;;;;;;4974763;28;20216;-83
2021/11/24 05:06:28;;;;;;;3.33;3.13;;;;;;;;;;4973621;28;20263;-83
2021/11/24 05:08:55;;;;;;;3.72;3.42;;;;;;;;;;4973815;28;20200;-83
2021/11/24 05:11:24;;;;;;;4.03;3.10;;;;;;;;;;4974370;28;20243;-83
2021/11/24 05:13:55;;;;;;;4.07;3.78;;;;;;;;;;4974166;28;20236;-83
2021/11/24 05:16:24;;;;;;;3.47;3.17;;;;;;;;;;4974483;28;20793;-83
2021/11/24 05:18:53;;;;;;;4.25;3.85;;;;;;;;;;4976253;28;20263;-83
2021/11/24 05:21:26;;;;;;;3.40;3.10;;;;;;;;;;4973684;28;20207;-83
2021/11/24 05:23:56;;;;;;;3.15;2.80;;;;;;;;;;4956389;29;20213;-83
2021/11/24 05:26:25;;;;;;;3.80;3.50;;;;;;;;;;4968353;28;20233;-83
2021/11/24 05:28:53;;;;;;;4.28;3.88;;;;;;;;;;4964263;28;20236;-83
2021/11/24 05:31:20;;;;;;;2.88;2.67;;;;;;;;;;4975965;28;20208;-83
2021/11/24 05:33:48;;;;;;;4.05;3.70;;;;;;;;;;4976304;28;20230;-83
2021/11/24 05:36:17;;;;;;;3.30;3.00;;;;;;;;;;4967308;28;20308;-82
2021/11/24 05:38:46;;;;;;;3.58;3.17;;;;;;;;;;4956568;29;20209;-83
2021/11/24 05:41:14;;;;;;;3.78;3.40;;;;;;;;;;4956597;29;20212;-83
2021/11/24 05:43:44;;;;;;;3.35;3.05;;;;;;;;;;4956681;29;20625;-83
2021/11/24 05:46:15;;;;;;;3.53;3.22;;;;;;;;;;4956040;28;20228;-83
2021/11/24 05:48:44;;;;;;;3.78;3.47;;;;;;;;;;4956751;29;20726;-83
2021/11/24 05:51:12;;;;;;;5.38;4.88;;;;;;;;;;4957186;29;20205;-83
2021/11/24 05:53:40;;;;;;;5.07;4.57;;;;;;;;;;4956830;29;20213;-84
2021/11/24 05:56:08;;;;;;;6.32;4.93;;;;;;;;;;4956999;28;20225;-84
2021/11/24 05:58:41;;;;;;;6.80;5.75;;;;;;;;;;4959652;29;20267;-83
2021/11/24 06:01:09;;;;;;;5.30;4.80;;;;;;;;;;4957454;29;20279;-83
2021/11/24 06:03:36;;;;;;;6.95;5.43;;;;;;;;;;4956725;29;20236;-83
2021/11/24 06:06:04;;;;;;;6.80;6.18;;;;;;;;;;4955838;28;20763;-84
2021/11/24 06:08:32;;;;;;;7.03;5.72;;;;;;;;;;4956400;29;20237;-84
2021/11/24 06:10:59;;;;;;;6.93;6.28;;;;;;;;;;4956985;29;20225;-84
2021/11/24 06:13:27;;;;;;;5.60;5.10;;;;;;;;;;4956194;29;20241;-83
2021/11/24 06:15:56;;;;;;;4.63;4.22;;;;;;;;;;4956661;28;20253;-83
2021/11/24 06:18:23;;;;;;;4.10;3.80;;;;;;;;;;4956724;29;20240;-83
2021/11/24 06:20:51;;;;;;;6.32;5.72;;;;;;;;;;4956767;29;20724;-83
2021/11/24 06:23:19;;;;;;;6.57;5.45;;;;;;;;;;4956854;29;20637;-84
2021/11/24 06:25:47;;;;;;;5.70;5.13;;;;;;;;;;4956221;28;20221;-84
2021/11/24 06:28:15;;;;;;;6.47;5.88;;;;;;;;;;4956466;29;20283;-84
2021/11/24 06:30:43;;;;;;;7.70;6.03;;;;;;;;;;4956456;29;20710;-84
2021/11/24 06:33:12;;;;;;;8.48;7.43;;;;;;;;;;4956479;28;20217;-83
2021/11/24 06:35:39;;;;;;;6.57;5.90;;;;;;;;;;4959630;28;20221;-84
2021/11/24 06:38:07;;;;;;;12.05;8.35;;;;;;;;;;4959671;29;20201;-84
2021/11/24 06:40:35;;;;;;;10.77;8.02;;;;;;;;;;4960269;29;20220;-85
2021/11/24 06:43:04;;;;;;;9.63;7.93;;;;;;;;;;4959934;29;20213;-84
2021/11/24 06:45:32;;;;;;;11.85;9.10;;;;;;;;;;4959431;29;20213;-84
2021/11/24 06:48:01;;;;;;;8.38;7.30;;;;;;;;;;4960013;28;20737;-84
2021/11/24 06:50:30;;;;;;;6.60;5.20;;;;;;;;;;4959512;29;20212;-84
2021/11/24 06:52:57;;;;;;;6.00;4.68;;;;;;;;;;4959692;29;20205;-87
2021/11/24 06:55:25;;;;;;;5.97;4.80;;;;;;;;;;4959980;29;20237;-84
2021/11/24 06:57:53;;;;;;;5.95;4.38;;;;;;;;;;4959837;28;20312;-84
2021/11/24 07:00:20;;;;;;;6.28;5.50;;;;;;;;;;4959687;29;20236;-86
2021/11/24 07:02:48;;;;;;;6.07;4.43;;;;;;;;;;4959532;29;20243;-84
2021/11/24 07:05:16;;;;;;;4.80;4.40;;;;;;;;;;4960303;29;20617;-84
2021/11/24 07:07:45;;;;;;;4.93;4.20;;;;;;;;;;4959207;28;20241;-84
2021/11/24 07:10:12;;;;;;;4.95;4.53;;;;;;;;;;4960017;29;20585;-84
2021/11/24 07:12:40;;;;;;;4.68;3.83;;;;;;;;;;4959797;29;20220;-84
2021/11/24 07:15:09;;;;;;;6.30;4.53;;;;;;;;;;4959334;29;20686;-84
2021/11/24 07:17:37;;;;;;;4.93;4.45;;;;;;;;;;4958900;28;20268;-84
2021/11/24 07:20:05;;;;;;;5.80;5.20;;;;;;;;;;4958926;29;20448;-84
2021/11/24 07:22:33;;;;;;;10.48;6.93;;;;;;;;;;4964387;28;20240;-84
2021/11/24 07:25:03;;;;;;;10.27;6.63;;;;;;;;;;4964835;28;20247;-84
2021/11/24 07:27:31;;;;;;;11.02;7.57;;;;;;;;;;4958726;28;20260;-84
2021/11/24 07:29:58;;;;;;;7.65;6.28;;;;;;;;;;4959267;29;20217;-84
2021/11/24 07:32:26;;;;;;;8.32;5.80;;;;;;;;;;4966299;28;20235;-86
2021/11/24 07:34:54;;;;;;;9.52;6.28;;;;;;;;;;4969796;28;20217;-86
2021/11/24 07:37:21;;;;;;;9.20;6.43;;;;;;;;;;4957717;28;20560;-86
2021/11/24 07:39:49;;;;;;;11.30;8.20;;;;;;;;;;4957564;29;20249;-85
2021/11/24 07:42:18;;;;;;;10.40;7.85;;;;;;;;;;4958223;28;20201;-85
2021/11/24 07:44:46;;;;;;;10.30;7.03;;;;;;;;;;4973054;28;20220;-84
2021/11/24 07:47:14;;;;;;;13.38;7.45;;;;;;;;;;4976469;28;20251;-86
2021/11/24 07:49:42;;;;;;;6.63;5.55;;;;;;;;;;4976453;28;20236;-85
2021/11/24 07:52:09;;;;;;;11.15;7.55;;;;;;;;;;4977772;28;20197;-84
2021/11/24 07:54:37;;;;;;;8.52;5.50;;;;;;;;;;4977621;28;20666;-86
2021/11/24 07:57:05;;;;;;;9.52;7.00;;;;;;;;;;4976455;28;20299;-86
2021/11/24 07:59:36;;;;;;;10.90;7.95;;;;;;;;;;4992498;28;20302;-86
2021/11/24 08:02:04;;;;;;;7.22;6.43;;;;;;;;;;4975841;28;20197;-86
2021/11/24 08:04:32;;;;;;;8.55;6.38;;;;;;;;;;4976074;28;20223;-86
2021/11/24 08:07:02;;;;;;;5.22;4.40;;;;;;;;;;4975313;28;20264;-85
2021/11/24 08:09:30;;;;;;;6.90;5.40;;;;;;;;;;4976182;28;20196;-86
2021/11/24 08:12:11;;;;;;;9.40;7.15;;;;;;;;;;4976780;28;20220;-87
2021/11/24 08:14:40;;;;;;;7.60;5.72;;;;;;;;;;4975715;28;20560;-86
2021/11/24 08:17:08;;;;;;;13.32;9.35;;;;;;;;;;4976756;28;20306;-84
2021/11/24 08:19:36;;;;;;;14.00;9.73;;;;;;;;;;4976772;28;20296;-86
2021/11/24 08:22:03;;;;;;;15.23;9.60;;;;;;;;;;4976337;28;20220;-86
2021/11/24 08:24:31;;;;;;;8.82;6.47;;;;;;;;;;4975335;28;20244;-86
2021/11/24 08:26:59;;;;;;;10.10;8.73;;;;;;;;;;4976176;28;20661;-85
2021/11/24 08:29:26;;;;;;;10.75;7.72;;;;;;;;;;4978100;28;20188;-85
2021/11/24 08:31:55;;;;;;;10.77;8.57;;;;;;;;;;4976766;28;20364;-85
2021/11/24 08:34:23;;;;;;;12.80;8.85;;;;;;;;;;4978410;28;20678;-85
2021/11/24 08:36:52;;;;;;;11.38;7.45;;;;;;;;;;4978146;28;20274;-85
2021/11/24 08:39:20;;;;;;;11.93;8.82;;;;;;;;;;4978954;28;20193;-84
2021/11/24 08:41:49;;;;;;;7.53;5.72;;;;;;;;;;4959083;29;20245;-84
2021/11/24 08:44:16;;;;;;;9.55;7.85;;;;;;;;;;4958645;29;20232;-83
2021/11/24 08:46:44;;;;;;;7.90;6.45;;;;;;;;;;4968393;28;20417;-84
2021/11/24 08:49:14;;;;;;;11.85;8.82;;;;;;;;;;4977671;28;20745;-85
2021/11/24 08:51:42;;;;;;;10.52;8.05;;;;;;;;;;4977949;28;20221;-84
2021/11/24 08:54:12;;;;;;;11.25;8.32;;;;;;;;;;4977956;28;20216;-84
2021/11/24 08:56:40;;;;;;;11.52;8.20;;;;;;;;;;4977990;28;20670;-85
2021/11/24 08:59:09;;;;;;;10.25;7.50;;;;;;;;;;4974756;28;20240;-87
2021/11/24 09:01:38;;;;;;;8.23;7.43;;;;;;;;;;4977592;28;20737;-84
2021/11/24 09:04:06;;;;;;;7.57;6.25;;;;;;;;;;4977926;28;20196;-84
2021/11/24 09:06:36;;;;;;;10.25;8.00;;;;;;;;;;4978140;28;20268;-84
2021/11/24 09:09:05;;;;;;;9.70;6.70;;;;;;;;;;4977492;28;20243;-83
2021/11/24 09:11:33;;;;;;;10.82;7.63;;;;;;;;;;4976623;28;20189;-83
2021/11/24 09:14:01;;;;;;;10.32;8.23;;;;;;;;;;4976216;28;20225;-83
2021/11/24 09:16:28;;;;;;;9.25;7.05;;;;;;;;;;4975933;28;20256;-83
2021/11/24 09:18:56;;;;;;;14.05;9.60;;;;;;;;;;4976537;28;20596;-82
2021/11/24 09:21:24;;;;;;;8.98;6.85;;;;;;;;;;4976613;28;20284;-83
2021/11/24 09:23:57;;;;;;;9.80;7.28;;;;;;;;;;4976169;28;20212;-82
2021/11/24 09:26:30;;;;;;;8.27;6.65;;;;;;;;;;4960595;28;20224;-83
2021/11/24 09:28:58;;;;;;;8.65;6.90;;;;;;;;;;4957914;29;20197;-83
2021/11/24 09:31:25;;;;;;;8.27;6.63;;;;;;;;;;4957900;28;20627;-83
2021/11/24 09:33:53;;;;;;;14.05;8.98;;;;;;;;;;4975447;28;20235;-83
2021/11/24 09:36:20;;;;;;;13.93;9.77;;;;;;;;;;4976893;28;20263;-83
2021/11/24 09:38:49;;;;;;;10.25;8.50;;;;;;;;;;4977514;28;20261;-82
2021/11/24 09:41:24;;;;;;;14.82;11.75;;;;;;;;;;4976426;28;20216;-83
2021/11/24 09:43:54;;;;;;;13.13;9.43;;;;;;;;;;4976764;28;20266;-82
2021/11/24 09:46:26;;;;;;;12.13;8.45;;;;;;;;;;4976842;28;20734;-82
2021/11/24 09:48:54;;;;;;;14.02;11.20;;;;;;;;;;4976410;28;20671;-83
2021/11/24 09:51:22;;;;;;;18.38;13.23;;;;;;;;;;4976125;28;20235;-82
2021/11/24 09:53:50;;;;;;;18.90;11.68;;;;;;;;;;4975956;28;20223;-83
2021/11/24 09:56:19;;;;;;;17.88;11.82;;;;;;;;;;4986066;28;20432;-84
2021/11/24 09:58:47;;;;;;;11.73;9.52;;;;;;;;;;4996148;28;20222;-83
2021/11/24 10:01:15;;;;;;;14.43;10.18;;;;;;;;;;4995864;28;20266;-82
2021/11/24 10:03:43;;;;;;;12.77;9.23;;;;;;;;;;4988868;28;20239;-83
2021/11/24 10:06:10;;;;;;;12.43;9.23;;;;;;;;;;4976598;28;20311;-81
2021/11/24 10:08:38;;;;;;;18.25;12.32;;;;;;;;;;4977436;28;20244;-83
2021/11/24 10:11:06;;;;;;;13.63;9.60;;;;;;;;;;4979727;28;20701;-82
2021/11/24 10:13:35;;;;;;;10.02;8.20;;;;;;;;;;4979297;28;20232;-82
2021/11/24 10:16:02;;;;;;;11.95;8.88;;;;;;;;;;4980017;28;20311;-83
2021/11/24 10:18:32;;;;;;;15.73;10.35;;;;;;;;;;4980371;28;20229;-82
2021/11/24 10:21:08;;;;;;;13.13;10.55;;;;;;;;;;4978367;28;20244;-82
2021/11/24 10:23:38;;;;;;;13.77;10.63;;;;;;;;;;4981042;28;20195;-82
2021/11/24 10:26:19;;;;;;;13.60;10.95;;;;;;;;;;4979068;28;20278;-82
2021/11/24 10:28:55;;;;;;;12.10;9.73;;;;;;;;;;4978417;28;20204;-83
2021/11/24 10:31:36;;;;;;;16.20;10.48;;;;;;;;;;4979848;28;20275;-82
2021/11/24 10:34:14;;;;;;;11.25;9.10;;;;;;;;;;4979323;28;20235;-84
2021/11/24 10:37:04;;;;;;;7.80;6.82;;;;;;;;;;4980013;28;20256;-83
2021/11/24 10:39:35;;;;;;;12.38;10.93;;;;;;;;;;4980098;28;20200;-82
2021/11/24 10:42:11;;;;;;;13.15;10.20;;;;;;;;;;4979920;28;20252;-83
2021/11/24 10:44:43;;;;;;;10.38;8.70;;;;;;;;;;4979804;28;20259;-83
2021/11/24 10:47:13;;;;;;;10.35;8.40;;;;;;;;;;4979750;28;20714;-83
2021/11/24 10:49:45;;;;;;;8.40;7.38;;;;;;;;;;4979742;28;20240;-83
2021/11/24 10:52:23;;;;;;;11.63;9.23;;;;;;;;;;4979677;28;20240;-83
2021/11/24 10:55:07;;;;;;;13.75;9.68;;;;;;;;;;4979826;28;20228;-83
2021/11/24 10:57:36;;;;;;;10.95;8.98;;;;;;;;;;4979831;28;20737;-83
2021/11/24 11:00:12;;;;;;;11.10;9.40;;;;;;;;;;4978855;28;20260;-81
2021/11/24 11:02:41;;;;;;;14.68;10.15;;;;;;;;;;4979591;28;20232;-83
2021/11/24 11:05:12;;;;;;;13.20;9.80;;;;;;;;;;4982510;28;20686;-84
2021/11/24 11:07:56;;;;;;;10.30;8.32;;;;;;;;;;4998445;28;20275;-83
2021/11/24 11:10:25;;;;;;;14.23;11.00;;;;;;;;;;4998522;28;20679;-82
2021/11/24 11:12:57;;;;;;;14.32;10.23;;;;;;;;;;4998394;28;20215;-83
2021/11/24 11:15:36;;;;;;;11.75;9.63;;;;;;;;;;4997992;28;20239;-82
2021/11/24 11:18:11;;;;;;;13.50;10.48;;;;;;;;;;4998161;28;20655;-83
2021/11/24 11:20:44;;;;;;;8.77;6.90;;;;;;;;;;4996793;28;20184;-82
2021/11/24 11:23:19;;;;;;;8.93;7.28;;;;;;;;;;4997315;28;20204;-83
2021/11/24 11:25:50;;;;;;;10.10;8.23;;;;;;;;;;4996440;28;20234;-82
2021/11/24 11:28:18;;;;;;;11.75;7.50;;;;;;;;;;4995596;28;20234;-82
2021/11/24 11:30:51;;;;;;;11.88;9.73;;;;;;;;;;4998011;28;20287;-81
2021/11/24 11:33:21;;;;;;;13.23;9.98;;;;;;;;;;4997391;28;20357;-82
2021/11/24 11:35:50;;;;;;;9.85;8.80;;;;;;;;;;4997259;28;20215;-81
2021/11/24 11:38:21;;;;;;;15.60;9.98;;;;;;;;;;4997946;28;20219;-80
2021/11/24 11:40:52;;;;;;;9.30;7.28;;;;;;;;;;4997403;28;20771;-82
2021/11/24 11:43:22;;;;;;;8.18;6.10;;;;;;;;;;4997671;28;20647;-81
2021/11/24 11:45:52;;;;;;;8.93;7.80;;;;;;;;;;4997527;28;20242;-82
2021/11/24 11:48:30;;;;;;;4.93;4.43;;;;;;;;;;4998315;28;20251;-84
2021/11/24 11:51:00;;;;;;;4.10;3.70;;;;;;;;;;4997831;28;20266;-81
2021/11/24 11:53:31;;;;;;;5.32;4.05;;;;;;;;;;4997672;28;20246;-82
2021/11/24 11:56:20;;;;;;;4.72;3.65;;;;;;;;;;4997557;28;20378;-84
2021/11/24 11:59:01;;;;;;;7.05;5.85;;;;;;;;;;4998239;28;20274;-82
2021/11/24 12:01:34;;;;;;;7.40;6.32;;;;;;;;;;4997743;28;20223;-83
2021/11/24 12:04:14;;;;;;;8.57;6.78;;;;;;;;;;4998177;28;20235;-83
2021/11/24 12:06:45;;;;;;;9.85;5.90;;;;;;;;;;4996936;28;20717;-83
2021/11/24 12:09:28;;;;;;;9.45;6.82;;;;;;;;;;4997280;28;20208;-82
2021/11/24 12:12:27;;;;;;;8.02;6.78;;;;;;;;;;4997241;28;20258;-83
2021/11/24 12:15:15;;;;;;;9.98;7.15;;;;;;;;;;4996401;28;20208;-84
2021/11/24 12:17:54;;;;;;;8.05;5.90;;;;;;;;;;4998279;28;20255;-85
2021/11/24 12:20:43;;;;;;;7.05;6.35;;;;;;;;;;4998707;28;20196;-84
2021/11/24 12:23:27;;;;;;;5.72;4.75;;;;;;;;;;4998196;28;20254;-84
2021/11/24 12:25:57;;;;;;;5.68;4.53;;;;;;;;;;4997755;28;20649;-85
2021/11/24 12:28:33;;;;;;;7.60;6.10;;;;;;;;;;4997770;28;20242;-82
2021/11/24 12:31:17;;;;;;;5.80;5.20;;;;;;;;;;4997813;28;20196;-85
2021/11/24 12:33:55;;;;;;;6.18;4.95;;;;;;;;;;4997918;28;20620;-84
2021/11/24 12:36:30;;;;;;;7.03;5.28;;;;;;;;;;4997507;28;20228;-83
2021/11/24 12:39:03;;;;;;;4.43;4.03;;;;;;;;;;4998014;28;20271;-83
2021/11/24 12:41:36;;;;;;;4.85;4.20;;;;;;;;;;4998048;28;20190;-84
2021/11/24 12:44:08;;;;;;;4.03;3.63;;;;;;;;;;4998079;28;20220;-85
2021/11/24 12:46:39;;;;;;;4.00;3.25;;;;;;;;;;4996970;28;20314;-84
2021/11/24 12:49:11;;;;;;;2.88;2.58;;;;;;;;;;4995630;28;20556;-86
2021/11/24 12:51:46;;;;;;;3.08;2.85;;;;;;;;;;4995526;28;20298;-86
2021/11/24 12:54:21;;;;;;;3.75;3.35;;;;;;;;;;4996324;28;20227;-86
2021/11/24 12:56:51;;;;;;;6.00;3.88;;;;;;;;;;4996268;28;20223;-84
2021/11/24 12:59:21;;;;;;;5.25;4.75;;;;;;;;;;4995185;28;20184;-85
2021/11/24 13:01:52;;;;;;;4.88;4.38;;;;;;;;;;4996274;28;20682;-83
2021/11/24 13:04:23;;;;;;;6.18;5.57;;;;;;;;;;4995953;28;20284;-86
2021/11/24 13:06:55;;;;;;;4.70;4.30;;;;;;;;;;4996101;28;20263;-81
2021/11/24 13:09:25;;;;;;;4.38;3.97;;;;;;;;;;4996691;28;20195;-80
2021/11/24 13:11:56;;;;;;;4.32;3.92;;;;;;;;;;4996442;28;20192;-81
2021/11/24 13:14:28;;;;;;;5.13;4.63;;;;;;;;;;4996985;28;20223;-83
2021/11/24 13:17:13;;;;;;;5.55;4.85;;;;;;;;;;4995911;28;20220;-79
2021/11/24 13:19:50;;;;;;;4.80;3.70;;;;;;;;;;4996172;28;20200;-81
2021/11/24 13:22:32;;;;;;;5.07;4.32;;;;;;;;;;4995853;28;20254;-81
2021/11/24 13:25:10;;;;;;;5.13;4.32;;;;;;;;;;4996681;28;20347;-81
2021/11/24 13:27:41;;;;;;;5.25;3.95;;;;;;;;;;4994711;28;20227;-81
2021/11/24 13:30:11;;;;;;;3.80;3.50;;;;;;;;;;4995720;28;20230;-81
2021/11/24 13:32:59;;;;;;;3.30;2.90;;;;;;;;;;4995405;28;20286;-81
2021/11/24 13:35:29;;;;;;;2.22;2.03;;;;;;;;;;4995663;28;20245;-81
2021/11/24 13:37:57;;;;;;;3.08;2.83;;;;;;;;;;4995287;28;20227;-81
2021/11/24 13:40:47;;;;;;;3.42;2.97;;;;;;;;;;4995434;28;20243;-80
2021/11/24 13:43:32;;;;;;;2.83;2.63;;;;;;;;;;4996024;28;20250;-81
2021/11/24 13:46:01;;;;;;;2.63;2.42;;;;;;;;;;4996642;28;20262;-81
2021/11/24 13:48:35;;;;;;;2.10;1.95;;;;;;;;;;4996370;28;20189;-81
2021/11/24 13:51:07;;;;;;;2.03;1.88;;;;;;;;;;4996741;28;20215;-81
2021/11/24 13:53:37;;;;;;;2.08;1.92;;;;;;;;;;4996625;28;20242;-81
2021/11/24 13:56:21;;;;;;;1.80;1.70;;;;;;;;;;4996598;28;20259;-80
2021/11/24 13:59:03;;;;;;;2.45;2.25;;;;;;;;;;4996931;28;20209;-82
2021/11/24 14:01:35;;;;;;;2.53;2.33;;;;;;;;;;4996242;28;20188;-81
2021/11/24 14:04:05;;;;;;;1.73;1.63;;;;;;;;;;4996993;28;20275;-80
2021/11/24 14:06:41;;;;;;;2.95;2.65;;;;;;;;;;4996923;28;20270;-81
2021/11/24 14:09:27;;;;;;;3.75;3.05;;;;;;;;;;4996486;28;20242;-81
2021/11/24 14:12:11;;;;;;;2.55;2.33;;;;;;;;;;4997187;28;20188;-83
2021/11/24 14:14:52;;;;;;;3.10;2.90;;;;;;;;;;4995546;28;20203;-81
2021/11/24 14:17:30;;;;;;;3.05;2.55;;;;;;;;;;4996336;28;20223;-81
2021/11/24 14:20:00;;;;;;;3.08;2.78;;;;;;;;;;4996327;28;20238;-82
2021/11/24 14:22:42;;;;;;;2.95;2.75;;;;;;;;;;4992869;28;20208;-82
2021/11/24 14:25:14;;;;;;;2.45;2.25;;;;;;;;;;4976514;28;20200;-82
2021/11/24 14:27:43;;;;;;;2.15;2.05;;;;;;;;;;4976893;28;20311;-82
2021/11/24 14:30:13;;;;;;;2.42;2.22;;;;;;;;;;4977336;28;20643;-82
2021/11/24 14:32:42;;;;;;;2.03;1.85;;;;;;;;;;4977427;28;20279;-81
2021/11/24 14:35:13;;;;;;;2.63;2.42;;;;;;;;;;4975777;28;20640;-82
2021/11/24 14:37:45;;;;;;;1.90;1.80;;;;;;;;;;4976673;28;20224;-82
2021/11/24 14:40:14;;;;;;;2.28;1.77;;;;;;;;;;4976343;28;20177;-82
2021/11/24 14:42:42;;;;;;;1.95;1.85;;;;;;;;;;4976940;28;20219;-81
2021/11/24 14:45:11;;;;;;;1.77;1.67;;;;;;;;;;4976717;28;20251;-82
2021/11/24 14:47:39;;;;;;;2.13;1.92;;;;;;;;;;4976611;28;20260;-82
2021/11/24 14:50:09;;;;;;;2.00;1.90;;;;;;;;;;4976351;28;20221;-82
2021/11/24 14:52:37;;;;;;;3.70;1.75;;;;;;;;;;4976621;28;20208;-82
2021/11/24 14:55:07;;;;;;;1.60;1.50;;;;;;;;;;4976423;28;20232;-82
2021/11/24 14:57:35;;;;;;;1.70;1.60;;;;;;;;;;4980074;28;20228;-81
2021/11/24 15:00:04;;;;;;;1.55;1.45;;;;;;;;;;4979916;28;20268;-81